Kastel Stari HR Speed Test Log

Averages  Max Speed    
1 to 25 of 179** for City Kastel Stari HR
Time
  
  Speed   Provider Size    User ConnectID   TestID  
12/5/19 3:30:07 pm 31.7 Mbps 3.96 MB/sIskon 22 MB12943013426 FYzJ5Z5Du 
11/22/19 3:37:56 pm 346 kbps 43 kB/sIskon 816 kB1294299465725 qPWoCZQ5y 
11/22/19 3:37:31 pm 9.82 Mbps 1.23 MB/sIskon 15 MB1294299465725 Couqr~MZ~ 
11/19/19 5:31:07 pm 948 kbps 119 kB/sVipnet 1.1 MB8089015663 x48RnwGmL 
11/19/19 5:09:49 pm 841 kbps 105 kB/sVipnet 480 kB8089015663 ~eHzoZHKo 
10/11/19 1:32:17 pm 1.51 Mbps 189 kB/sOptima 2.1 MB8180130593712 v02lI2uC- 
10/11/19 1:31:37 pm 10.82 Mbps 1.35 MB/sOptima 24.1 MB8180130593712 FgpPZ-~8e 
10/3/19 8:17:38 pm 30.31 Mbps 3.79 MB/sOptima 25.7 MB8180130594263 aSD74zJOa 
9/10/19 10:16:32 pm 171 kbps 21 kB/sOptima 256 kB8180134626684 VQCJ8kYjh 
9/10/19 10:16:18 pm 687 kbps 86 kB/sOptima 1.7 MB8180134626684 nefuWXXl8 
9/10/19 10:15:13 pm 181 kbps 23 kB/sOptima 256 kB8180134626684 NIaZ9FkJY 
9/10/19 10:15:01 pm 1.09 Mbps 136 kB/sOptima 2.5 MB8180134626684 z6iAuDorw 
9/10/19 10:14:21 pm 151 kbps 19 kB/sOptima 256 kB8180134626684 BMLiA1UYp 
9/10/19 10:14:06 pm 1.22 Mbps 152 kB/sOptima 1.2 MB8180134626684 JQNJXy_8o 
9/10/19 10:13:34 pm 108 kbps 14 kB/sOptima 256 kB8180134626684 6En-n6sES 
9/10/19 10:13:11 pm 47 kbps 6 kB/sOptima 96 kB8180134626684 SvzmvjxEX 
9/10/19 10:06:26 pm 688 kbps 86 kB/sOptima 1.2 MB8180134626684 OYHjijQzx 
9/10/19 10:05:20 pm 211 kbps 26 kB/sOptima 1.2 MB8180134626684 eaMtN52OP 
9/10/19 10:03:48 pm 290 kbps 36 kB/sOptima 1.2 MB8180134626684 sHKYQ-Aij 
9/10/19 10:02:54 pm 604 kbps 76 kB/sOptima 1.2 MB8180134626684 kT0HfsUWa 
9/10/19 10:02:32 pm 757 kbps 95 kB/sOptima 1.2 MB8180134626684 0lK4bifHr 
9/10/19 10:02:04 pm 493 kbps 62 kB/sOptima 480 kB8180134626684 7~DAYlpaG 
9/10/19 10:00:05 pm 116 kbps 15 kB/sOptima 256 kB8180134626684 bAHzJvSc8 
9/10/19 9:59:46 pm 853 kbps 107 kB/sOptima 1.7 MB8180134626684 4aZqOYuzL 
9/10/19 9:58:40 pm 115 kbps 14 kB/sOptima 256 kB8180134626684 2XYL0UiMD 
  
** Partial Results: The most recent results have been displayed. Results over 50 Mbps are highlighted.
Calculated from graphed results above not entire query.
Displaying Internet Speed Test results for City Kastel Stari HR

Minimum

Min 0.05 Mbps : 0.11 Mbps

Average

Avg 5.97 Mbps : 0.45 Mbps

Maximum

Max 31.7 Mbps : 1.51 Mbps

Minimum

Min: 0.05 Mbps : 0.11 Mbps |

Average

Avg: 5.97 Mbps : 0.45 Mbps |

Maximum

Max: 31.7 Mbps : 1.51 Mbps